Time;durP1;ratioP1;P1;durP2;ratioP2;P2;SDS_P1;SDS_P2;PMS_P1;PMS_P2;Temp;Humidity;BMP_temperature;BMP_pressure;BME280_temperature;BME280_humidity;BME280_pressure;Samples;Min_cycle;Max_cycle;Signal;HPM_P1;HPM_P2
2022/12/08 00:01:28;;;;;;;12.68;5.50;;;1.80;99.90;;;;;;5077229;28;20036;-83
2022/12/08 00:03:56;;;;;;;13.77;4.80;;;1.80;99.90;;;;;;5093753;28;20132;-83
2022/12/08 00:09:34;;;;;;;8.10;2.28;;;2.20;99.90;;;;;;5110451;28;20043;-83
2022/12/08 00:12:02;;;;;;;4.07;1.42;;;2.00;99.90;;;;;;5093779;28;20051;-83
2022/12/08 00:14:32;;;;;;;5.03;1.23;;;2.00;99.90;;;;;;5093669;28;20051;-83
2022/12/08 00:16:59;;;;;;;5.03;1.42;;;2.10;99.90;;;;;;5093337;28;20486;-83
2022/12/08 00:19:26;;;;;;;8.55;1.30;;;2.70;99.90;;;;;;5093541;28;20044;-83
2022/12/08 00:21:54;;;;;;;5.18;1.55;;;2.20;99.90;;;;;;5093474;28;20396;-83
2022/12/08 00:24:22;;;;;;;3.40;1.13;;;2.70;99.90;;;;;;5076910;28;20487;-83
2022/12/08 00:26:48;;;;;;;4.07;1.20;;;2.20;99.90;;;;;;5110147;28;20040;-83
2022/12/08 00:29:16;;;;;;;5.18;1.30;;;2.40;99.90;;;;;;5093631;28;20127;-83
2022/12/08 00:31:42;;;;;;;6.55;1.33;;;3.20;99.90;;;;;;5093446;28;20444;-83
2022/12/08 00:34:11;;;;;;;8.65;1.42;;;2.30;99.90;;;;;;5076806;28;20032;-83
2022/12/08 00:36:38;;;;;;;7.07;1.38;;;2.20;99.90;;;;;;5092983;28;20480;-83
2022/12/08 00:39:05;;;;;;;7.15;1.60;;;2.10;99.90;;;;;;5109853;28;20047;-83
2022/12/08 00:44:18;;;;;;;3.08;1.42;;;2.10;99.90;;;;;;5081738;28;20579;-83
2022/12/08 00:46:45;;;;;;;6.15;1.27;;;2.10;99.90;;;;;;5109429;28;20457;-83
2022/12/08 00:49:13;;;;;;;6.07;1.83;;;2.10;99.90;;;;;;5092946;28;20059;-83
2022/12/08 00:51:40;;;;;;;4.43;1.00;;;2.10;99.90;;;;;;5092688;28;20036;-83
2022/12/08 00:54:07;;;;;;;3.63;1.13;;;2.90;99.90;;;;;;5093520;28;20036;-83
2022/12/08 00:56:34;;;;;;;2.17;0.90;;;2.40;99.90;;;;;;5109494;28;20778;-83
2022/12/08 00:59:04;;;;;;;6.32;1.13;;;2.60;99.90;;;;;;5092732;28;20051;-83
2022/12/08 01:01:32;;;;;;;3.70;1.15;;;2.10;99.90;;;;;;5092676;28;20036;-83
2022/12/08 01:04:05;;;;;;;3.13;1.00;;;2.60;99.90;;;;;;5093432;28;20093;-83
2022/12/08 01:06:34;;;;;;;2.88;1.02;;;2.10;99.90;;;;;;5092725;28;20040;-83
2022/12/08 01:09:05;;;;;;;4.65;1.27;;;2.10;99.90;;;;;;5092595;28;20048;-83
2022/12/08 01:11:32;;;;;;;5.55;1.20;;;2.10;99.90;;;;;;5092344;28;20492;-82
2022/12/08 01:13:59;;;;;;;4.95;1.25;;;2.10;99.90;;;;;;5092641;28;20100;-82
2022/12/08 01:16:28;;;;;;;5.82;2.85;;;2.10;99.90;;;;;;5076235;28;20047;-83
2022/12/08 01:18:59;;;;;;;14.98;6.97;;;2.20;99.90;;;;;;5108941;28;20032;-82
2022/12/08 01:21:28;;;;;;;15.88;7.93;;;2.10;99.90;;;;;;5109477;28;20047;-83
2022/12/08 01:23:56;;;;;;;27.27;14.55;;;2.10;99.90;;;;;;5075959;28;20051;-82
2022/12/08 01:26:23;;;;;;;22.17;13.38;;;2.10;99.90;;;;;;5092597;28;20514;-83
2022/12/08 01:28:50;;;;;;;25.05;13.80;;;3.00;99.90;;;;;;5092210;28;20040;-83
2022/12/08 01:31:21;;;;;;;22.42;15.88;;;2.10;99.90;;;;;;5076301;28;20106;-83
2022/12/08 01:33:48;;;;;;;31.60;17.40;;;2.10;99.90;;;;;;5092383;28;20083;-82
2022/12/08 01:36:27;;;;;;;29.95;17.15;;;2.10;99.90;;;;;;5109501;28;20054;-83
2022/12/08 01:38:56;;;;;;;28.95;17.95;;;2.10;99.90;;;;;;5092129;28;20040;-83
2022/12/08 01:41:25;;;;;;;24.73;15.82;;;2.50;99.90;;;;;;5109063;28;20043;-83
2022/12/08 01:44:00;;;;;;;27.55;15.80;;;2.10;99.90;;;;;;5092587;28;20071;-83
2022/12/08 01:46:32;;;;;;;22.85;14.13;;;2.10;99.90;;;;;;5092680;28;20105;-82
2022/12/08 01:49:09;;;;;;;21.90;12.32;;;2.60;99.90;;;;;;5092306;28;20036;-83
2022/12/08 01:52:01;;;;;;;17.30;9.70;;;2.10;99.90;;;;;;5108919;28;20038;-82
2022/12/08 01:54:33;;;;;;;18.65;8.80;;;2.10;99.90;;;;;;5101832;28;20051;-83
2022/12/08 01:57:08;;;;;;;11.13;5.80;;;2.10;99.90;;;;;;5091696;28;20048;-83
2022/12/08 01:59:40;;;;;;;8.32;5.05;;;2.00;99.90;;;;;;5108980;28;20051;-82
2022/12/08 02:02:08;;;;;;;11.40;3.70;;;2.00;99.90;;;;;;5091925;28;20568;-83
2022/12/08 02:04:35;;;;;;;7.57;2.72;;;2.00;99.90;;;;;;5092425;28;20123;-82
2022/12/08 02:07:03;;;;;;;5.43;2.20;;;2.00;99.90;;;;;;5058859;28;20123;-82
2022/12/08 02:09:29;;;;;;;4.13;1.77;;;2.10;99.90;;;;;;5075621;28;20505;-83
2022/12/08 02:11:57;;;;;;;3.92;1.50;;;2.10;99.90;;;;;;5107774;28;20123;-82
2022/12/08 02:14:24;;;;;;;3.75;1.42;;;2.40;99.90;;;;;;5088312;28;20098;-83
2022/12/08 02:17:03;;;;;;;5.27;1.53;;;2.20;99.90;;;;;;5071564;28;20098;-82
2022/12/08 02:20:05;;;;;;;4.35;1.20;;;2.10;99.90;;;;;;5088686;28;20300;-82
2022/12/08 02:22:53;;;;;;;3.95;1.30;;;2.30;99.90;;;;;;5088104;28;20451;-83
2022/12/08 02:25:45;;;;;;;5.45;1.00;;;2.20;99.90;;;;;;5088510;28;20048;-82
2022/12/08 02:28:40;;;;;;;2.95;0.80;;;2.20;99.90;;;;;;5071261;28;20117;-82
2022/12/08 02:31:13;;;;;;;5.45;0.90;;;2.20;99.90;;;;;;5075587;28;20044;-82
2022/12/08 02:34:10;;;;;;;2.03;0.73;;;2.30;99.90;;;;;;5092246;28;20036;-83
2022/12/08 02:36:58;;;;;;;2.53;0.70;;;3.30;99.90;;;;;;5066039;28;20088;-83
2022/12/08 02:39:59;;;;;;;4.25;1.05;;;2.30;99.90;;;;;;5075866;28;20037;-83
2022/12/08 02:42:51;;;;;;;2.25;0.90;;;2.20;99.90;;;;;;5070509;28;20044;-83
2022/12/08 02:45:38;;;;;;;2.50;0.70;;;2.20;99.90;;;;;;5075631;28;20548;-83
2022/12/08 02:48:05;;;;;;;0.95;0.60;;;2.20;99.90;;;;;;5075362;28;20472;-83
2022/12/08 02:50:32;;;;;;;2.60;0.70;;;2.20;99.90;;;;;;5092061;28;20072;-83
2022/12/08 02:52:58;;;;;;;1.38;0.65;;;2.60;99.90;;;;;;5069576;28;20500;-83
2022/12/08 02:56:04;;;;;;;4.28;1.00;;;2.20;99.90;;;;;;5078555;28;20040;-83
2022/12/08 02:58:51;;;;;;;5.75;0.80;;;2.10;99.90;;;;;;5095209;28;20044;-83
2022/12/08 03:01:20;;;;;;;1.20;0.63;;;2.10;99.90;;;;;;5095530;28;20125;-83
2022/12/08 03:04:12;;;;;;;3.72;0.80;;;2.00;99.90;;;;;;5094405;28;20071;-82
2022/12/08 03:07:04;;;;;;;3.03;0.80;;;2.00;99.90;;;;;;5111517;28;20036;-83
2022/12/08 03:09:55;;;;;;;2.50;0.80;;;2.00;99.90;;;;;;5111415;28;20770;-82
2022/12/08 03:12:47;;;;;;;1.75;0.70;;;2.00;99.90;;;;;;5094316;28;20038;-83
2022/12/08 03:15:19;;;;;;;3.03;0.90;;;2.00;99.90;;;;;;5111316;28;20055;-83
2022/12/08 03:17:50;;;;;;;2.38;0.70;;;1.90;99.90;;;;;;5094556;28;20055;-83
2022/12/08 03:20:22;;;;;;;4.05;1.00;;;2.40;99.90;;;;;;5111991;28;20051;-82
2022/12/08 03:22:52;;;;;;;4.88;0.80;;;1.90;99.90;;;;;;5111387;28;20042;-82
2022/12/08 03:25:22;;;;;;;3.65;1.00;;;1.90;99.90;;;;;;5091431;28;20070;-83
2022/12/08 03:27:50;;;;;;;2.90;0.90;;;1.90;99.90;;;;;;5074432;28;20052;-81
2022/12/08 03:30:17;;;;;;;1.95;1.00;;;1.90;99.90;;;;;;5091336;28;20036;-82
2022/12/08 03:32:54;;;;;;;1.67;0.80;;;1.90;99.90;;;;;;5091002;28;20037;-82
2022/12/08 03:35:24;;;;;;;3.53;0.90;;;1.90;99.90;;;;;;5091865;28;20512;-82
2022/12/08 03:38:00;;;;;;;1.30;0.77;;;1.90;99.90;;;;;;5110857;28;20093;-81
2022/12/08 03:40:26;;;;;;;2.42;1.00;;;1.90;99.90;;;;;;5078815;28;20047;-82
2022/12/08 03:42:53;;;;;;;4.88;0.90;;;1.90;99.90;;;;;;5094350;28;20488;-82
2022/12/08 03:45:20;;;;;;;2.22;0.70;;;2.40;99.90;;;;;;5061142;28;20072;-82
2022/12/08 03:47:47;;;;;;;2.47;0.73;;;1.90;99.90;;;;;;5094247;28;20039;-82
2022/12/08 03:50:13;;;;;;;4.05;0.98;;;2.80;99.90;;;;;;5060909;28;20040;-82
2022/12/08 03:52:40;;;;;;;7.80;1.00;;;1.90;99.90;;;;;;5061396;28;20043;-81
2022/12/08 03:55:07;;;;;;;2.47;0.80;;;1.90;99.90;;;;;;5077469;28;20105;-82
2022/12/08 03:57:34;;;;;;;1.80;0.80;;;1.90;99.90;;;;;;5077597;28;20408;-82
2022/12/08 04:00:02;;;;;;;4.00;0.80;;;1.90;99.90;;;;;;5110311;28;20040;-82
2022/12/08 04:02:29;;;;;;;5.32;0.98;;;1.90;99.90;;;;;;5077675;28;20040;-82
2022/12/08 04:04:56;;;;;;;1.30;0.70;;;1.80;99.90;;;;;;5077062;28;20381;-82
2022/12/08 04:07:22;;;;;;;2.22;0.80;;;2.00;99.90;;;;;;5077480;28;20051;-82
2022/12/08 04:09:49;;;;;;;3.10;0.65;;;2.20;99.90;;;;;;5060397;28;20040;-82
2022/12/08 04:12:16;;;;;;;2.20;0.65;;;1.70;99.90;;;;;;5109886;28;20048;-82
2022/12/08 04:14:42;;;;;;;1.98;0.60;;;1.70;99.90;;;;;;5060504;28;20048;-82
2022/12/08 04:17:09;;;;;;;1.95;0.70;;;1.60;99.90;;;;;;5093624;28;20102;-82
2022/12/08 04:19:35;;;;;;;2.70;0.68;;;1.60;99.90;;;;;;5077493;28;20059;-82
2022/12/08 04:22:02;;;;;;;1.67;0.65;;;2.50;99.90;;;;;;5076868;28;20149;-81
2022/12/08 04:24:29;;;;;;;0.60;0.60;;;1.70;99.90;;;;;;5060647;28;20032;-81
2022/12/08 04:26:55;;;;;;;2.10;0.57;;;2.10;99.90;;;;;;5060882;28;20040;-81
2022/12/08 04:29:22;;;;;;;1.25;0.60;;;1.70;99.90;;;;;;5077111;28;20040;-82
2022/12/08 04:31:49;;;;;;;3.33;0.75;;;2.00;99.90;;;;;;5077088;28;20115;-82
2022/12/08 04:34:15;;;;;;;1.55;0.60;;;2.40;99.90;;;;;;5093506;28;20036;-81
2022/12/08 04:36:42;;;;;;;3.75;0.95;;;1.60;99.90;;;;;;5060398;28;20039;-82
2022/12/08 04:39:12;;;;;;;2.58;1.20;;;1.70;99.90;;;;;;5061060;28;20128;-81
2022/12/08 04:41:38;;;;;;;1.15;0.50;;;1.70;99.90;;;;;;5060322;28;20122;-82
2022/12/08 04:44:05;;;;;;;1.35;0.60;;;1.70;99.90;;;;;;5076378;28;20036;-82
2022/12/08 04:46:32;;;;;;;5.55;0.70;;;1.70;99.90;;;;;;5093308;28;20080;-82
2022/12/08 04:48:58;;;;;;;1.50;0.70;;;2.20;99.90;;;;;;5076873;28;20039;-81
2022/12/08 04:51:26;;;;;;;1.35;0.52;;;1.70;99.90;;;;;;5059335;28;20047;-81
2022/12/08 04:53:52;;;;;;;0.93;0.55;;;2.50;99.90;;;;;;5076353;28;20082;-81
2022/12/08 04:56:19;;;;;;;0.55;0.50;;;2.20;99.90;;;;;;5092697;28;20079;-81
2022/12/08 04:58:46;;;;;;;0.85;0.60;;;2.60;99.90;;;;;;5075996;28;20062;-81
2022/12/08 05:01:13;;;;;;;1.42;0.60;;;2.60;99.90;;;;;;5076021;28;20047;-81
2022/12/08 05:03:39;;;;;;;0.93;0.60;;;1.80;99.90;;;;;;5093221;28;20036;-80
2022/12/08 05:06:06;;;;;;;3.03;0.65;;;1.80;99.90;;;;;;5075816;28;20036;-81
2022/12/08 05:08:33;;;;;;;2.85;0.60;;;1.80;99.90;;;;;;5092208;28;20744;-81
2022/12/08 05:11:07;;;;;;;1.60;0.57;;;1.90;99.90;;;;;;5076100;28;20040;-81
2022/12/08 05:13:34;;;;;;;2.60;0.90;;;1.80;99.90;;;;;;5092389;28;20109;-82
2022/12/08 05:16:07;;;;;;;0.75;0.55;;;1.80;99.90;;;;;;5092997;28;20040;-82
2022/12/08 05:18:34;;;;;;;1.40;0.40;;;1.80;99.90;;;;;;5109361;28;20043;-82
2022/12/08 05:21:01;;;;;;;2.67;0.60;;;1.80;99.90;;;;;;5060001;28;20039;-81
2022/12/08 05:23:28;;;;;;;1.58;0.63;;;1.80;99.90;;;;;;5109396;28;20044;-82
2022/12/08 05:25:55;;;;;;;0.85;0.50;;;1.80;99.90;;;;;;5092449;28;20516;-82
2022/12/08 05:28:21;;;;;;;4.63;0.68;;;1.90;99.90;;;;;;5091946;28;20044;-82
2022/12/08 05:30:48;;;;;;;2.58;0.60;;;1.90;99.90;;;;;;5092489;28;20387;-82
2022/12/08 05:33:15;;;;;;;0.98;0.65;;;2.50;99.90;;;;;;5075721;28;20043;-82
2022/12/08 05:35:42;;;;;;;1.13;0.70;;;2.70;99.90;;;;;;5092448;28;20036;-82
2022/12/08 05:38:09;;;;;;;3.00;0.70;;;2.10;99.90;;;;;;5108299;28;20079;-82
2022/12/08 05:40:38;;;;;;;3.80;0.80;;;2.20;99.90;;;;;;5092396;28;20040;-81
2022/12/08 05:43:05;;;;;;;2.47;0.80;;;2.00;99.90;;;;;;5109244;28;20028;-81
2022/12/08 05:45:32;;;;;;;1.05;0.70;;;1.80;99.90;;;;;;5092530;28;20078;-81
2022/12/08 05:47:58;;;;;;;1.63;0.70;;;1.80;99.90;;;;;;5075713;28;20044;-81
2022/12/08 05:50:25;;;;;;;2.20;0.90;;;2.50;99.90;;;;;;5092249;28;20480;-81
2022/12/08 05:52:52;;;;;;;3.05;0.93;;;2.70;99.90;;;;;;5059275;28;20051;-81
2022/12/08 05:55:18;;;;;;;4.97;1.02;;;2.70;99.90;;;;;;5058984;28;20040;-81
2022/12/08 05:57:45;;;;;;;4.15;0.85;;;1.70;99.90;;;;;;5075491;28;20048;-81
2022/12/08 06:00:12;;;;;;;1.98;0.80;;;2.10;99.90;;;;;;5059120;28;20400;-81
2022/12/08 06:02:39;;;;;;;3.78;1.00;;;1.70;99.90;;;;;;5075934;28;20040;-81
2022/12/08 06:05:06;;;;;;;2.63;0.70;;;1.70;99.90;;;;;;5078059;28;20040;-82
2022/12/08 06:07:33;;;;;;;3.90;0.70;;;1.70;99.90;;;;;;5079493;28;20040;-81
2022/12/08 06:10:00;;;;;;;3.28;0.70;;;1.60;99.90;;;;;;5079322;28;20051;-81
2022/12/08 06:12:26;;;;;;;1.52;0.70;;;1.60;99.90;;;;;;5062385;28;20181;-81
2022/12/08 06:14:53;;;;;;;1.25;0.68;;;1.60;99.90;;;;;;5079196;28;20055;-81
2022/12/08 06:17:19;;;;;;;3.38;0.77;;;1.60;99.90;;;;;;5062896;28;20051;-80
2022/12/08 06:19:46;;;;;;;3.92;0.88;;;2.00;99.90;;;;;;5079725;28;20087;-81
2022/12/08 06:22:13;;;;;;;1.92;0.70;;;2.20;99.90;;;;;;5079522;28;20036;-81
2022/12/08 06:24:39;;;;;;;1.17;0.60;;;2.00;99.90;;;;;;5095420;28;20042;-81
2022/12/08 06:27:06;;;;;;;2.13;0.70;;;1.50;99.90;;;;;;5079498;28;20040;-81
2022/12/08 06:29:33;;;;;;;0.77;0.60;;;1.50;99.90;;;;;;5078634;28;20062;-81
2022/12/08 06:31:59;;;;;;;2.67;0.60;;;2.30;99.90;;;;;;5095915;28;20075;-81
2022/12/08 06:34:26;;;;;;;3.78;0.68;;;1.90;99.90;;;;;;5062412;28;20036;-81
2022/12/08 06:36:53;;;;;;;4.40;0.80;;;1.40;99.90;;;;;;5095793;28;20031;-81
2022/12/08 06:39:19;;;;;;;2.08;0.73;;;1.50;99.90;;;;;;5078592;28;20044;-81
2022/12/08 06:44:31;;;;;;;4.75;0.93;;;1.40;99.90;;;;;;5097842;28;20709;-81
2022/12/08 06:46:58;;;;;;;2.30;0.70;;;1.40;99.90;;;;;;5093690;28;20052;-81
2022/12/08 06:49:24;;;;;;;0.82;0.60;;;1.30;99.90;;;;;;5073311;28;20036;-81
2022/12/08 06:51:51;;;;;;;1.27;0.68;;;1.30;99.90;;;;;;5062028;28;20039;-81
2022/12/08 06:54:18;;;;;;;1.58;0.60;;;1.30;99.90;;;;;;5078402;28;20457;-81
2022/12/08 06:56:44;;;;;;;3.85;0.60;;;1.80;99.90;;;;;;5094982;28;20043;-81
2022/12/08 06:59:11;;;;;;;2.92;0.77;;;1.30;99.90;;;;;;5095258;28;20047;-81
2022/12/08 07:01:38;;;;;;;2.88;0.90;;;1.60;99.90;;;;;;5078047;28;20055;-81
2022/12/08 07:04:04;;;;;;;2.30;0.80;;;1.20;99.90;;;;;;5078694;28;20369;-81
2022/12/08 07:06:31;;;;;;;3.13;1.02;;;1.20;99.90;;;;;;5078613;28;20055;-81
2022/12/08 07:08:58;;;;;;;4.82;1.10;;;1.20;99.90;;;;;;5078369;28;20044;-81
2022/12/08 07:11:24;;;;;;;3.95;1.13;;;1.80;99.90;;;;;;5078010;28;20040;-82
2022/12/08 07:13:51;;;;;;;3.00;0.98;;;1.20;99.90;;;;;;5077924;28;20070;-81
2022/12/08 07:16:18;;;;;;;6.63;1.00;;;2.10;99.90;;;;;;5094357;28;20568;-81
2022/12/08 07:18:44;;;;;;;1.85;0.88;;;1.10;99.90;;;;;;5110502;28;20048;-81
2022/12/08 07:21:13;;;;;;;6.30;0.95;;;1.20;99.90;;;;;;5060961;28;20495;-81
2022/12/08 07:23:41;;;;;;;7.30;1.10;;;1.10;99.90;;;;;;5093776;28;20503;-81
2022/12/08 07:26:11;;;;;;;1.38;0.88;;;1.10;99.90;;;;;;5074061;28;20510;-81
2022/12/08 07:28:39;;;;;;;4.97;1.00;;;1.10;99.90;;;;;;5089767;28;20047;-81
2022/12/08 07:31:14;;;;;;;2.40;1.13;;;1.50;99.90;;;;;;5070203;28;20094;-81
2022/12/08 07:33:41;;;;;;;1.52;0.70;;;1.00;99.90;;;;;;5093628;28;20040;-81
2022/12/08 07:36:08;;;;;;;2.47;0.85;;;1.90;99.90;;;;;;5041610;28;20106;-81
2022/12/08 07:38:34;;;;;;;1.35;0.77;;;1.00;99.90;;;;;;5058488;28;20036;-81
2022/12/08 07:41:01;;;;;;;6.38;0.80;;;0.90;99.90;;;;;;5075481;28;20032;-81
2022/12/08 07:43:28;;;;;;;1.42;0.73;;;1.50;99.90;;;;;;5068064;28;20105;-81
2022/12/08 07:45:55;;;;;;;2.08;0.77;;;0.90;99.90;;;;;;5057942;28;20040;-81
2022/12/08 07:48:21;;;;;;;2.15;0.80;;;1.70;99.90;;;;;;5099055;28;20121;-81
2022/12/08 07:50:48;;;;;;;1.88;0.57;;;0.90;99.90;;;;;;5080857;28;20052;-81
2022/12/08 07:53:15;;;;;;;2.63;1.08;;;1.60;99.90;;;;;;5077059;28;20119;-81
2022/12/08 07:55:42;;;;;;;4.38;0.93;;;1.30;99.90;;;;;;5073820;28;20465;-81
2022/12/08 07:58:10;;;;;;;1.23;0.65;;;0.80;99.90;;;;;;5129372;28;20059;-81
2022/12/08 08:00:37;;;;;;;1.85;0.82;;;1.60;99.90;;;;;;5059310;28;20073;-82
2022/12/08 08:03:03;;;;;;;1.33;0.70;;;0.70;99.90;;;;;;5094388;28;20123;-80
2022/12/08 08:05:30;;;;;;;1.60;0.70;;;0.70;99.90;;;;;;5109400;28;20028;-83
2022/12/08 08:07:57;;;;;;;1.45;0.70;;;0.60;99.90;;;;;;5078021;28;20415;-87
2022/12/08 08:10:24;;;;;;;1.00;0.60;;;1.10;99.90;;;;;;5095065;28;20039;-87
2022/12/08 08:12:50;;;;;;;1.75;0.70;;;0.60;99.90;;;;;;5094168;28;20117;-86
2022/12/08 08:15:19;;;;;;;1.25;0.65;;;0.60;99.90;;;;;;5078424;28;20047;-89
2022/12/08 08:17:50;;;;;;;1.48;0.75;;;0.60;99.90;;;;;;5094361;28;20122;-89
2022/12/08 08:20:18;;;;;;;2.00;1.00;;;0.90;99.90;;;;;;5094994;28;20126;-88
2022/12/08 08:22:46;;;;;;;2.25;0.90;;;0.60;99.90;;;;;;5078227;28;20044;-86
2022/12/08 08:25:14;;;;;;;3.42;1.00;;;0.90;99.90;;;;;;5095205;28;20072;-87
2022/12/08 08:27:40;;;;;;;4.15;1.13;;;0.60;99.90;;;;;;5061000;28;20047;-87
2022/12/08 08:30:09;;;;;;;1.77;0.82;;;0.60;99.90;;;;;;5078203;28;20046;-88
2022/12/08 08:32:37;;;;;;;1.98;0.75;;;0.60;99.90;;;;;;5094697;28;20043;-88
2022/12/08 08:35:04;;;;;;;3.50;1.67;;;1.20;99.90;;;;;;5094666;28;20078;-87
2022/12/08 08:37:31;;;;;;;1.85;0.95;;;0.70;99.90;;;;;;5110988;28;20044;-87
2022/12/08 08:39:57;;;;;;;1.60;0.80;;;0.70;99.90;;;;;;5061566;28;20127;-86
2022/12/08 08:42:24;;;;;;;3.28;0.95;;;1.60;99.90;;;;;;5061343;28;20040;-88
2022/12/08 08:44:51;;;;;;;1.48;0.80;;;0.70;99.90;;;;;;5077657;28;20031;-88
2022/12/08 08:47:17;;;;;;;1.15;0.65;;;0.70;99.90;;;;;;5061178;28;20044;-88
2022/12/08 08:49:45;;;;;;;3.60;1.17;;;0.70;99.90;;;;;;5077717;28;20048;-87
2022/12/08 08:52:11;;;;;;;1.80;0.90;;;1.70;99.90;;;;;;5077741;28;20031;-86
2022/12/08 08:54:38;;;;;;;3.15;1.13;;;0.60;99.90;;;;;;5061250;28;20044;-82
2022/12/08 08:57:05;;;;;;;2.10;1.13;;;0.70;99.90;;;;;;5094414;28;20040;-88
2022/12/08 08:59:31;;;;;;;3.08;1.10;;;1.80;99.90;;;;;;5061019;28;20075;-87
2022/12/08 09:01:58;;;;;;;3.00;1.15;;;1.50;99.90;;;;;;5060846;28;20040;-87
2022/12/08 09:04:25;;;;;;;1.90;0.95;;;0.60;99.90;;;;;;5077918;28;20032;-88
2022/12/08 09:06:52;;;;;;;3.78;1.02;;;0.60;99.90;;;;;;5093840;28;20032;-87
2022/12/08 09:09:18;;;;;;;2.17;1.10;;;1.50;99.90;;;;;;5061117;28;20078;-88
2022/12/08 09:11:45;;;;;;;2.47;1.20;;;0.90;99.90;;;;;;5060688;28;20036;-88
2022/12/08 09:14:16;;;;;;;3.25;1.02;;;0.70;99.90;;;;;;5077221;28;20052;-88
2022/12/08 09:16:43;;;;;;;6.63;1.20;;;1.20;99.90;;;;;;5077897;28;20047;-88
2022/12/08 09:19:09;;;;;;;1.73;1.05;;;1.30;99.90;;;;;;5094083;28;20044;-88
2022/12/08 09:21:36;;;;;;;2.85;1.13;;;0.90;99.90;;;;;;5077426;28;20047;-88
2022/12/08 09:24:03;;;;;;;2.90;1.25;;;1.00;99.90;;;;;;5076678;28;20044;-88
2022/12/08 09:26:29;;;;;;;3.00;1.40;;;1.00;99.90;;;;;;5077287;28;20527;-88
2022/12/08 09:28:56;;;;;;;2.85;1.63;;;1.00;99.90;;;;;;5060537;28;20040;-87
2022/12/08 09:31:24;;;;;;;5.35;1.40;;;1.00;99.90;;;;;;5077242;28;20404;-88
2022/12/08 09:33:50;;;;;;;4.30;1.20;;;1.10;99.90;;;;;;5110441;28;20040;-88
2022/12/08 09:36:17;;;;;;;4.88;1.48;;;1.50;99.90;;;;;;5077281;28;20142;-88
2022/12/08 09:38:45;;;;;;;2.30;1.20;;;1.10;99.90;;;;;;5093182;28;20040;-84
2022/12/08 09:41:37;;;;;;;5.90;1.10;;;2.10;99.90;;;;;;5060957;28;20040;-88
2022/12/08 09:44:12;;;;;;;4.65;1.10;;;1.20;99.90;;;;;;5096066;28;20044;-88
2022/12/08 09:46:40;;;;;;;3.75;1.30;;;1.20;99.90;;;;;;5093781;28;20396;-88
2022/12/08 09:49:15;;;;;;;3.15;1.08;;;1.30;99.90;;;;;;5077098;28;20131;-88
2022/12/08 09:51:44;;;;;;;3.25;1.48;;;1.30;99.90;;;;;;5094086;28;20051;-89
2022/12/08 09:54:15;;;;;;;7.43;1.40;;;1.80;99.90;;;;;;5093353;28;20484;-87
2022/12/08 09:56:41;;;;;;;5.90;1.17;;;1.90;99.90;;;;;;5110190;28;20051;-89
2022/12/08 09:59:08;;;;;;;11.07;1.42;;;1.40;99.90;;;;;;5060143;28;20047;-88
2022/12/08 10:01:40;;;;;;;3.53;1.33;;;1.50;99.90;;;;;;5093559;28;20139;-89
2022/12/08 10:04:19;;;;;;;7.57;1.70;;;1.50;99.90;;;;;;5109946;28;20510;-89
2022/12/08 10:07:03;;;;;;;5.68;1.58;;;2.30;99.90;;;;;;5109901;28;20032;-87
2022/12/08 10:10:11;;;;;;;3.22;1.30;;;1.60;99.90;;;;;;5110281;28;20118;-86
2022/12/08 10:13:07;;;;;;;10.73;1.17;;;1.60;99.90;;;;;;5109100;28;20522;-89
2022/12/08 10:15:36;;;;;;;6.00;1.05;;;1.70;99.90;;;;;;5093420;28;20132;-88
2022/12/08 10:18:12;;;;;;;4.75;1.20;;;1.70;99.90;;;;;;5092863;28;20521;-88
2022/12/08 10:20:44;;;;;;;4.30;1.08;;;1.90;99.90;;;;;;5092771;28;20039;-88
2022/12/08 10:23:11;;;;;;;6.28;1.35;;;1.90;99.90;;;;;;5093149;28;20051;-89
2022/12/08 10:25:45;;;;;;;4.05;1.23;;;1.90;99.90;;;;;;5093543;28;20047;-88
2022/12/08 10:28:13;;;;;;;1.70;0.95;;;1.90;99.90;;;;;;5109669;28;20047;-88
2022/12/08 10:30:40;;;;;;;7.95;1.10;;;2.00;99.90;;;;;;5093218;28;20040;-88
2022/12/08 10:33:14;;;;;;;2.08;1.02;;;2.50;99.90;;;;;;5059825;28;20458;-89
2022/12/08 10:35:44;;;;;;;3.40;0.90;;;2.00;99.90;;;;;;5109999;28;20079;-89
2022/12/08 10:38:25;;;;;;;2.22;1.00;;;2.50;99.90;;;;;;5093069;28;20032;-87
2022/12/08 10:40:55;;;;;;;5.32;1.05;;;2.10;99.90;;;;;;5093403;28;20043;-89
2022/12/08 10:43:24;;;;;;;2.25;0.90;;;2.10;99.90;;;;;;5077205;28;20036;-88
2022/12/08 10:45:52;;;;;;;2.35;1.20;;;2.70;99.90;;;;;;5076643;28;20040;-89
2022/12/08 10:48:30;;;;;;;1.25;0.70;;;3.00;99.90;;;;;;5075519;28;20051;-88
2022/12/08 10:50:58;;;;;;;8.05;1.10;;;2.80;99.90;;;;;;5074592;28;20044;-88
2022/12/08 10:53:27;;;;;;;2.20;0.90;;;2.20;99.90;;;;;;5076598;28;20809;-86
2022/12/08 10:56:00;;;;;;;3.33;1.10;;;2.20;99.90;;;;;;5076652;28;20048;-82
2022/12/08 10:58:41;;;;;;;1.58;0.88;;;2.20;99.90;;;;;;5093021;28;20044;-88
2022/12/08 11:01:11;;;;;;;2.60;1.00;;;2.20;99.90;;;;;;5083840;28;20055;-88
2022/12/08 11:03:42;;;;;;;4.03;1.15;;;2.20;99.90;;;;;;5096636;28;20103;-89
2022/12/08 11:06:31;;;;;;;1.90;0.63;;;2.20;99.90;;;;;;5095818;28;20442;-88
2022/12/08 11:09:05;;;;;;;4.15;1.60;;;2.60;99.90;;;;;;5095801;28;20044;-88
2022/12/08 11:11:44;;;;;;;7.70;1.67;;;2.10;99.90;;;;;;5112760;28;20127;-88
2022/12/08 11:14:30;;;;;;;7.80;1.35;;;2.10;99.90;;;;;;5095970;28;20519;-88
2022/12/08 11:17:09;;;;;;;4.07;1.52;;;2.10;99.90;;;;;;5112746;28;20117;-88
2022/12/08 11:19:42;;;;;;;4.93;1.38;;;2.30;99.90;;;;;;5096071;28;20470;-88
2022/12/08 11:22:32;;;;;;;8.10;1.38;;;2.20;99.90;;;;;;5112620;28;20039;-88
2022/12/08 11:25:11;;;;;;;3.65;1.40;;;2.20;99.90;;;;;;5095618;28;20032;-84
2022/12/08 11:27:43;;;;;;;6.32;1.30;;;2.30;99.90;;;;;;5096050;28;20551;-88
2022/12/08 11:30:16;;;;;;;4.60;1.10;;;2.30;99.90;;;;;;5095774;28;20201;-88
2022/12/08 11:32:45;;;;;;;6.13;1.17;;;2.40;99.90;;;;;;5095835;28;20525;-88
2022/12/08 11:35:36;;;;;;;5.00;1.25;;;2.40;99.90;;;;;;5112402;28;20098;-88
2022/12/08 11:38:13;;;;;;;3.15;1.10;;;2.70;99.90;;;;;;5095523;28;20040;-89
2022/12/08 11:40:42;;;;;;;3.33;1.02;;;2.60;99.90;;;;;;5095663;28;20059;-88
2022/12/08 11:43:15;;;;;;;3.33;1.33;;;2.60;99.90;;;;;;5095311;28;20068;-88
2022/12/08 11:45:42;;;;;;;4.18;1.20;;;2.70;99.90;;;;;;5095702;28;20039;-88
2022/12/08 11:48:30;;;;;;;3.60;1.13;;;3.60;99.90;;;;;;5078798;28;20047;-88
2022/12/08 11:51:02;;;;;;;3.92;1.20;;;2.70;99.90;;;;;;5092231;28;20121;-87
2022/12/08 11:53:45;;;;;;;3.70;1.20;;;2.80;99.90;;;;;;5087526;28;20476;-88
2022/12/08 11:56:20;;;;;;;3.88;0.90;;;2.90;99.90;;;;;;5092286;28;20041;-88
2022/12/08 11:58:55;;;;;;;8.98;1.10;;;2.90;99.90;;;;;;5075605;28;20040;-87
2022/12/08 12:01:23;;;;;;;7.03;1.40;;;3.60;99.90;;;;;;5105614;28;20036;-88
2022/12/08 12:04:08;;;;;;;3.35;0.90;;;3.30;99.90;;;;;;5095448;28;20040;-89
2022/12/08 12:07:05;;;;;;;4.20;1.00;;;3.00;99.90;;;;;;5112099;28;20131;-87
2022/12/08 12:09:43;;;;;;;3.83;0.98;;;3.00;99.90;;;;;;5095185;28;20066;-89
2022/12/08 12:12:12;;;;;;;3.42;0.68;;;3.00;99.90;;;;;;5111337;28;20118;-89
2022/12/08 12:15:02;;;;;;;3.47;0.77;;;3.00;99.90;;;;;;5094461;28;20416;-88
2022/12/08 12:17:50;;;;;;;11.38;1.30;;;3.00;99.90;;;;;;5111365;28;20036;-89
2022/12/08 12:20:24;;;;;;;3.70;0.82;;;3.00;99.90;;;;;;5094714;28;20127;-89
2022/12/08 12:22:58;;;;;;;1.30;0.60;;;3.00;99.90;;;;;;5094911;28;20040;-88
2022/12/08 12:25:26;;;;;;;4.03;0.85;;;3.00;99.90;;;;;;5094787;28;20762;-89
2022/12/08 12:27:59;;;;;;;5.97;0.88;;;3.10;99.90;;;;;;5078267;28;20040;-88
2022/12/08 12:30:32;;;;;;;2.63;1.00;;;2.90;99.90;;;;;;5111150;28;20174;-89
2022/12/08 12:33:00;;;;;;;2.65;0.80;;;3.60;99.90;;;;;;5094179;28;20169;-88
2022/12/08 12:35:32;;;;;;;3.03;0.88;;;2.90;99.90;;;;;;5094558;28;20043;-89
2022/12/08 12:38:59;;;;;;;1.63;0.80;;;2.80;99.90;;;;;;5094632;28;20044;-89
2022/12/08 12:41:00;;;;;;;8.57;1.00;;;2.80;99.90;;;;;;5111177;28;20551;-89
2022/12/08 12:43:31;;;;;;;8.98;1.25;;;2.70;99.90;;;;;;5110350;28;20097;-89
2022/12/08 12:46:36;;;;;;;5.25;1.15;;;2.80;99.90;;;;;;5110036;28;20044;-90
2022/12/08 12:49:38;;;;;;;6.53;1.33;;;2.70;99.90;;;;;;5102078;28;20052;-88
2022/12/08 12:52:30;;;;;;;3.13;0.80;;;2.80;99.90;;;;;;5106598;28;20094;-89
2022/12/08 12:54:57;;;;;;;3.15;1.02;;;2.80;99.90;;;;;;5094432;28;20044;-88
2022/12/08 12:57:34;;;;;;;3.33;0.73;;;2.90;99.90;;;;;;5074011;28;20093;-90
2022/12/08 13:00:00;;;;;;;4.18;0.77;;;3.00;99.90;;;;;;5079597;28;20111;-88
2022/12/08 13:02:44;;;;;;;1.80;0.63;;;3.20;99.90;;;;;;5093737;28;20126;-89
2022/12/08 13:05:25;;;;;;;4.57;0.68;;;3.30;99.90;;;;;;5094052;28;20404;-88
2022/12/08 13:08:08;;;;;;;3.60;0.80;;;3.10;99.90;;;;;;5110632;28;20048;-88
2022/12/08 13:10:38;;;;;;;4.22;1.40;;;3.20;99.90;;;;;;5093744;28;20051;-90
2022/12/08 13:13:16;;;;;;;5.00;1.00;;;3.20;99.90;;;;;;5093360;28;20199;-90
2022/12/08 13:16:11;;;;;;;2.95;1.40;;;3.20;99.90;;;;;;5110271;28;20055;-90
2022/12/08 13:18:46;;;;;;;1.38;0.60;;;3.20;99.90;;;;;;5092988;28;20047;-90
2022/12/08 13:21:19;;;;;;;2.97;0.80;;;3.20;99.90;;;;;;5089248;28;20477;-90
2022/12/08 13:23:49;;;;;;;5.30;1.23;;;3.10;99.90;;;;;;5109461;28;20028;-89
2022/12/08 13:26:24;;;;;;;3.92;1.60;;;3.10;99.90;;;;;;5087594;28;20043;-86